메인 페이지
METAR-TAF:

METAR-TAF

공항 :

레오나르도 다 빈치 국제공항

로마 피우미치노, 이탈리아

위도: 41-48N, 경도: 012-14E, 고도: 2m

현재 날씨관측

예보는 24분 전, 22:50시(UTC)에 발표되었습니다.
남남동8kt
온도 16°C
습도 88%
기압 1012 hPa
시정: 9000m
고도 1200ft 상공 구름 보통

METAR: LIRF 232250Z 16008KT 9000 SCT012 16/14 Q1012 NOSIG

시각: 01:14 (23:14 UTC)

예보

예보는 6 시간 14분 전, 17:00시(UTC)에 발표되었습니다.
예보 대상 시간: 23일 18시부터 24일 24시까지 (UTC)
14kt
시정 10km 이상
고도 2000ft 상공 구름 보통
전환 중
23일 18시부터 23일 20시까지 (UTC)
동남동8kt
전환 중
24일 09시부터 24일 11시까지 (UTC)
남남서12kt

TAF: LIRF 231700Z 2318/2424 18014KT 9999 SCT020 BECMG 2318/2320 12008KT BECMG 2409/2411 20012KT

4,000개 이상의 공항 관측 자료 및 예보 (METAR 및 TAF 보고).

지도상에서 검색 가능한 기상관측소가 노란 점과 빨간 점으로 표시되어 있습니다.

기상관측소 명을 보려면 표시 위로 마우스를 이동하세요.

날씨 관측과 예보를 보려면 클릭하세요.

지도 변경 : 확대하려면 엑스 표시가 있는 녹색 버튼, 축소하려면 빼기 표시가 있는 녹색 버튼, 다음 페이지의 지도를 보려면 녹색 화살표를 클릭하세요.


METAR-TAF: